Fallowfield, United Kingdom
Current Conditions -  °F | °C
As of 7:50 AM on Saturday 25 Oct 2014 (Local Time) from EGCC Reporting Station
Broken Clouds Broken Clouds  
Wind Chill: 43°   Ceiling: 4500
Heat Index: 48°   Visibility: 6mi
Dew Point: 46°   Wind: 12mph
Humidity: 93%   Direction: 200°SSW
Pressure: 29.91"   Gusts: NA
Location:  53.44°N, 2.22°W
Report Text: EGCC 250650Z 20010KT 9999 FEW020 BKN045 09/08 Q1013
Loading
Personal Weather Stations






























Interactive Weather Map
Tropical Storm Tracking
New forecast layout! Learn more

10-Day Weather Forecast

Advertisements
Track Severe Weather on mobile